sensor_id;sensor_type;location;lat;lon;timestamp;pressure;altitude;pressure_sealevel;temperature;humidity
9676;BME280;4876;42.656;23.292;2023-03-20T00:00:26;94659.72;;;6.73;64.23
9676;BME280;4876;42.656;23.292;2023-03-20T00:02:54;94658.22;;;6.67;64.72
9676;BME280;4876;42.656;23.292;2023-03-20T00:05:22;94664.56;;;6.61;64.53
9676;BME280;4876;42.656;23.292;2023-03-20T00:07:50;94663.03;;;6.55;64.99
9676;BME280;4876;42.656;23.292;2023-03-20T00:10:18;94579.47;;;5.97;65.11
9676;BME280;4876;42.656;23.292;2023-03-20T00:12:49;94653.66;;;6.54;65.13
9676;BME280;4876;42.656;23.292;2023-03-20T00:15:23;94657.31;;;6.53;65.04
9676;BME280;4876;42.656;23.292;2023-03-20T00:17:51;94650.25;;;6.53;65.14
9676;BME280;4876;42.656;23.292;2023-03-20T00:20:19;94651.53;;;6.56;64.42
9676;BME280;4876;42.656;23.292;2023-03-20T00:22:46;94658.03;;;6.58;64.46
9676;BME280;4876;42.656;23.292;2023-03-20T00:25:14;94649.53;;;6.47;65.04
9676;BME280;4876;42.656;23.292;2023-03-20T00:27:42;94655.84;;;6.41;65.34
9676;BME280;4876;42.656;23.292;2023-03-20T00:30:19;94653.00;;;6.38;65.35
9676;BME280;4876;42.656;23.292;2023-03-20T00:32:47;94645.94;;;6.38;65.45
9676;BME280;4876;42.656;23.292;2023-03-20T00:35:22;94649.13;;;6.35;66.07
9676;BME280;4876;42.656;23.292;2023-03-20T00:37:51;94648.84;;;6.37;66.29
9676;BME280;4876;42.656;23.292;2023-03-20T00:40:18;94643.91;;;6.35;65.99
9676;BME280;4876;42.656;23.292;2023-03-20T00:42:49;94632.44;;;6.31;66.14
9676;BME280;4876;42.656;23.292;2023-03-20T00:45:19;94648.34;;;6.35;65.35
9676;BME280;4876;42.656;23.292;2023-03-20T00:47:48;94641.81;;;6.32;65.71
9676;BME280;4876;42.656;23.292;2023-03-20T00:50:18;94645.47;;;6.31;65.46
9676;BME280;4876;42.656;23.292;2023-03-20T00:52:46;94645.03;;;6.24;66.04
9676;BME280;4876;42.656;23.292;2023-03-20T00:55:13;94645.53;;;6.26;65.89
9676;BME280;4876;42.656;23.292;2023-03-20T00:57:47;94638.28;;;6.18;66.72
9676;BME280;4876;42.656;23.292;2023-03-20T01:00:26;94638.03;;;6.14;66.67
9676;BME280;4876;42.656;23.292;2023-03-20T01:02:56;94614.94;;;6.03;66.86
9676;BME280;4876;42.656;23.292;2023-03-20T01:05:24;94615.19;;;6.01;66.77
9676;BME280;4876;42.656;23.292;2023-03-20T01:07:51;94627.00;;;6.28;66.50
9676;BME280;4876;42.656;23.292;2023-03-20T01:10:18;94630.91;;;6.25;66.50
9676;BME280;4876;42.656;23.292;2023-03-20T01:12:46;94627.53;;;6.25;66.39
9676;BME280;4876;42.656;23.292;2023-03-20T01:15:21;94621.78;;;6.28;66.46
9676;BME280;4876;42.656;23.292;2023-03-20T01:17:50;94613.19;;;6.22;66.65
9676;BME280;4876;42.656;23.292;2023-03-20T01:20:21;94620.50;;;6.20;67.20
9676;BME280;4876;42.656;23.292;2023-03-20T01:22:48;94615.28;;;6.20;66.63
9676;BME280;4876;42.656;23.292;2023-03-20T01:25:16;94608.50;;;6.19;67.09
9676;BME280;4876;42.656;23.292;2023-03-20T01:27:45;94622.06;;;6.21;66.74
9676;BME280;4876;42.656;23.292;2023-03-20T01:30:19;94616.84;;;6.21;66.83
9676;BME280;4876;42.656;23.292;2023-03-20T01:32:46;94616.84;;;6.21;66.46
9676;BME280;4876;42.656;23.292;2023-03-20T01:35:16;94602.75;;;6.22;66.59
9676;BME280;4876;42.656;23.292;2023-03-20T01:37:44;94613.41;;;6.26;66.32
9676;BME280;4876;42.656;23.292;2023-03-20T01:40:28;94615.25;;;6.25;67.10
9676;BME280;4876;42.656;23.292;2023-03-20T01:42:56;94623.19;;;6.15;67.09
9676;BME280;4876;42.656;23.292;2023-03-20T01:45:27;94621.50;;;5.90;67.70
9676;BME280;4876;42.656;23.292;2023-03-20T01:47:55;94626.22;;;5.93;68.30
9676;BME280;4876;42.656;23.292;2023-03-20T01:50:28;94629.00;;;6.02;67.49
9676;BME280;4876;42.656;23.292;2023-03-20T01:53:01;94624.88;;;5.96;67.82
9676;BME280;4876;42.656;23.292;2023-03-20T01:55:29;94624.91;;;5.90;68.17
9676;BME280;4876;42.656;23.292;2023-03-20T01:57:59;94626.47;;;5.97;68.27
9676;BME280;4876;42.656;23.292;2023-03-20T02:00:27;94625.09;;;6.04;67.54
9676;BME280;4876;42.656;23.292;2023-03-20T02:02:54;94631.56;;;6.12;67.48
9676;BME280;4876;42.656;23.292;2023-03-20T02:05:22;94632.66;;;6.06;67.50
9676;BME280;4876;42.656;23.292;2023-03-20T02:07:57;94629.50;;;6.09;67.73
9676;BME280;4876;42.656;23.292;2023-03-20T02:10:24;94616.56;;;5.93;68.17
9676;BME280;4876;42.656;23.292;2023-03-20T02:12:51;94611.34;;;5.93;68.50
9676;BME280;4876;42.656;23.292;2023-03-20T02:15:19;94546.53;;;5.32;68.38
9676;BME280;4876;42.656;23.292;2023-03-20T02:17:46;94623.13;;;5.86;68.61
9676;BME280;4876;42.656;23.292;2023-03-20T02:20:21;94617.63;;;5.87;68.40
9676;BME280;4876;42.656;23.292;2023-03-20T02:23:39;94616.38;;;5.80;68.94
9676;BME280;4876;42.656;23.292;2023-03-20T02:26:20;94620.53;;;5.81;69.02
9676;BME280;4876;42.656;23.292;2023-03-20T02:32:23;94628.09;;;5.82;69.11
9676;BME280;4876;42.656;23.292;2023-03-20T02:35:22;94624.38;;;5.88;69.54
9676;BME280;4876;42.656;23.292;2023-03-20T02:38:17;94622.84;;;5.87;68.64
9676;BME280;4876;42.656;23.292;2023-03-20T02:40:55;94621.31;;;5.81;69.46
9676;BME280;4876;42.656;23.292;2023-03-20T02:43:31;94618.16;;;5.84;69.24
9676;BME280;4876;42.656;23.292;2023-03-20T02:46:05;94604.38;;;5.79;69.40
9676;BME280;4876;42.656;23.292;2023-03-20T02:48:40;94609.31;;;5.80;70.08
9676;BME280;4876;42.656;23.292;2023-03-20T02:51:14;94603.06;;;5.76;69.94
9676;BME280;4876;42.656;23.292;2023-03-20T02:53:51;94610.59;;;5.83;69.45
9676;BME280;4876;42.656;23.292;2023-03-20T02:56:23;94611.00;;;5.66;70.04
9676;BME280;4876;42.656;23.292;2023-03-20T02:59:01;94604.44;;;5.68;70.06
9676;BME280;4876;42.656;23.292;2023-03-20T03:01:34;94608.84;;;5.73;69.91
9676;BME280;4876;42.656;23.292;2023-03-20T03:04:06;94606.78;;;5.70;69.93
9676;BME280;4876;42.656;23.292;2023-03-20T03:06:35;94576.66;;;5.54;69.83
9676;BME280;4876;42.656;23.292;2023-03-20T03:09:08;94610.44;;;5.69;69.81
9676;BME280;4876;42.656;23.292;2023-03-20T03:11:41;94601.56;;;5.70;69.53
9676;BME280;4876;42.656;23.292;2023-03-20T03:14:14;94606.25;;;5.73;69.23
9676;BME280;4876;42.656;23.292;2023-03-20T03:16:44;94596.91;;;5.67;69.02
9676;BME280;4876;42.656;23.292;2023-03-20T03:19:14;94595.09;;;5.62;69.42
9676;BME280;4876;42.656;23.292;2023-03-20T03:21:45;94605.53;;;5.62;69.37
9676;BME280;4876;42.656;23.292;2023-03-20T03:24:27;94601.41;;;5.56;69.74
9676;BME280;4876;42.656;23.292;2023-03-20T03:26:55;94605.28;;;5.59;69.57
9676;BME280;4876;42.656;23.292;2023-03-20T03:29:24;94601.09;;;5.63;70.09
9676;BME280;4876;42.656;23.292;2023-03-20T03:31:53;94606.81;;;5.65;69.79
9676;BME280;4876;42.656;23.292;2023-03-20T03:34:22;94614.94;;;5.58;69.56
9676;BME280;4876;42.656;23.292;2023-03-20T03:36:53;94614.72;;;5.55;70.13
9676;BME280;4876;42.656;23.292;2023-03-20T03:39:34;94598.59;;;5.48;69.72
9676;BME280;4876;42.656;23.292;2023-03-20T03:42:06;94604.81;;;5.52;69.09
9676;BME280;4876;42.656;23.292;2023-03-20T03:44:41;94616.53;;;5.54;69.29
9676;BME280;4876;42.656;23.292;2023-03-20T03:47:13;94613.50;;;5.37;69.60
9676;BME280;4876;42.656;23.292;2023-03-20T03:49:46;94603.81;;;5.48;69.41
9676;BME280;4876;42.656;23.292;2023-03-20T03:52:18;94595.50;;;5.40;70.09
9676;BME280;4876;42.656;23.292;2023-03-20T03:54:50;94602.03;;;5.38;70.14
9676;BME280;4876;42.656;23.292;2023-03-20T03:57:22;94601.66;;;5.10;70.26
9676;BME280;4876;42.656;23.292;2023-03-20T03:59:51;94589.88;;;5.18;70.66
9676;BME280;4876;42.656;23.292;2023-03-20T04:02:20;94600.31;;;5.18;70.90
9676;BME280;4876;42.656;23.292;2023-03-20T04:04:50;94600.03;;;5.20;71.22
9676;BME280;4876;42.656;23.292;2023-03-20T04:07:18;94602.41;;;5.16;70.97
9676;BME280;4876;42.656;23.292;2023-03-20T04:09:45;94590.22;;;5.06;71.15
9676;BME280;4876;42.656;23.292;2023-03-20T04:12:32;94594.06;;;5.14;70.62
9676;BME280;4876;42.656;23.292;2023-03-20T04:15:00;94592.78;;;5.17;70.42
9676;BME280;4876;42.656;23.292;2023-03-20T04:17:27;94592.44;;;5.28;70.58
9676;BME280;4876;42.656;23.292;2023-03-20T04:19:54;94592.44;;;5.28;69.76
9676;BME280;4876;42.656;23.292;2023-03-20T04:22:21;94577.06;;;5.27;70.46
9676;BME280;4876;42.656;23.292;2023-03-20T04:24:47;94585.19;;;5.15;70.53
9676;BME280;4876;42.656;23.292;2023-03-20T04:27:15;94581.56;;;5.16;71.06
9676;BME280;4876;42.656;23.292;2023-03-20T04:29:44;94590.50;;;4.95;70.66
9676;BME280;4876;42.656;23.292;2023-03-20T04:32:11;94584.78;;;4.98;71.72
9676;BME280;4876;42.656;23.292;2023-03-20T04:34:37;94586.81;;;5.06;71.27
9676;BME280;4876;42.656;23.292;2023-03-20T04:37:04;94588.34;;;5.12;71.51
9676;BME280;4876;42.656;23.292;2023-03-20T04:39:33;94596.09;;;5.27;71.05
9676;BME280;4876;42.656;23.292;2023-03-20T04:42:00;94590.22;;;5.51;70.17
9676;BME280;4876;42.656;23.292;2023-03-20T04:44:27;94589.06;;;5.67;69.03
9676;BME280;4876;42.656;23.292;2023-03-20T04:46:55;94604.59;;;5.82;68.74
9676;BME280;4876;42.656;23.292;2023-03-20T04:49:22;94611.94;;;6.14;68.00
9676;BME280;4876;42.656;23.292;2023-03-20T04:51:49;94612.69;;;6.49;66.73
9676;BME280;4876;42.656;23.292;2023-03-20T04:54:16;94620.91;;;6.85;65.14
9676;BME280;4876;42.656;23.292;2023-03-20T04:56:42;94622.22;;;7.07;64.46
9676;BME280;4876;42.656;23.292;2023-03-20T04:59:09;94628.00;;;7.27;63.63
9676;BME280;4876;42.656;23.292;2023-03-20T05:01:36;94638.63;;;7.55;62.80
9676;BME280;4876;42.656;23.292;2023-03-20T05:04:04;94624.78;;;7.54;68.46
9676;BME280;4876;42.656;23.292;2023-03-20T05:06:43;94623.28;;;7.48;67.14
9676;BME280;4876;42.656;23.292;2023-03-20T05:09:14;94618.34;;;7.66;63.43
9676;BME280;4876;42.656;23.292;2023-03-20T05:11:41;94627.75;;;7.67;62.49
9676;BME280;4876;42.656;23.292;2023-03-20T05:14:08;94598.03;;;7.39;62.36
9676;BME280;4876;42.656;23.292;2023-03-20T05:16:36;94621.72;;;7.47;62.29
9676;BME280;4876;42.656;23.292;2023-03-20T05:19:05;94637.84;;;7.54;62.73
9676;BME280;4876;42.656;23.292;2023-03-20T05:21:32;94634.16;;;7.55;63.05
9676;BME280;4876;42.656;23.292;2023-03-20T05:23:59;94637.56;;;7.75;62.48
9676;BME280;4876;42.656;23.292;2023-03-20T05:26:25;94643.09;;;7.54;63.24
9676;BME280;4876;42.656;23.292;2023-03-20T05:28:52;94638.84;;;7.59;63.69
9676;BME280;4876;42.656;23.292;2023-03-20T05:31:19;94637.38;;;7.71;62.90
9676;BME280;4876;42.656;23.292;2023-03-20T05:33:46;94635.59;;;7.67;63.15
9676;BME280;4876;42.656;23.292;2023-03-20T05:36:14;94633.69;;;7.53;67.97
9676;BME280;4876;42.656;23.292;2023-03-20T05:38:41;94630.28;;;7.72;65.34
9676;BME280;4876;42.656;23.292;2023-03-20T05:41:07;94636.50;;;7.76;63.24
9676;BME280;4876;42.656;23.292;2023-03-20T05:43:34;94630.94;;;7.02;65.02
9676;BME280;4876;42.656;23.292;2023-03-20T05:46:01;94630.13;;;7.01;64.75
9676;BME280;4876;42.656;23.292;2023-03-20T05:48:28;94635.63;;;7.24;65.28
9676;BME280;4876;42.656;23.292;2023-03-20T05:50:55;94629.19;;;7.16;65.54
9676;BME280;4876;42.656;23.292;2023-03-20T05:53:28;94642.09;;;7.50;63.87
9676;BME280;4876;42.656;23.292;2023-03-20T05:55:55;94648.44;;;7.44;63.44
9676;BME280;4876;42.656;23.292;2023-03-20T05:58:22;94652.00;;;7.11;65.63
9676;BME280;4876;42.656;23.292;2023-03-20T06:00:48;94646.84;;;7.06;66.53
9676;BME280;4876;42.656;23.292;2023-03-20T06:03:15;94636.19;;;7.21;66.44
9676;BME280;4876;42.656;23.292;2023-03-20T06:05:43;94638.69;;;7.31;66.50
9676;BME280;4876;42.656;23.292;2023-03-20T06:08:10;94638.13;;;7.34;66.04
9676;BME280;4876;42.656;23.292;2023-03-20T06:10:38;94638.13;;;7.34;66.20
9676;BME280;4876;42.656;23.292;2023-03-20T06:13:05;94636.03;;;7.12;67.32
9676;BME280;4876;42.656;23.292;2023-03-20T06:15:32;94643.38;;;6.86;68.98
9676;BME280;4876;42.656;23.292;2023-03-20T06:17:59;94647.47;;;6.97;68.50
9676;BME280;4876;42.656;23.292;2023-03-20T06:20:26;94639.69;;;7.35;66.59
9676;BME280;4876;42.656;23.292;2023-03-20T06:22:52;94644.47;;;7.28;66.13
9676;BME280;4876;42.656;23.292;2023-03-20T06:25:20;94646.53;;;7.31;65.90
9676;BME280;4876;42.656;23.292;2023-03-20T06:27:48;94649.72;;;7.28;65.95
9676;BME280;4876;42.656;23.292;2023-03-20T06:30:15;94650.41;;;7.15;66.35
9676;BME280;4876;42.656;23.292;2023-03-20T06:32:42;94641.31;;;7.07;66.98
9676;BME280;4876;42.656;23.292;2023-03-20T06:35:10;94649.94;;;7.08;67.54
9676;BME280;4876;42.656;23.292;2023-03-20T06:37:37;94631.88;;;6.87;67.36
9676;BME280;4876;42.656;23.292;2023-03-20T06:40:06;94651.94;;;7.16;67.19
9676;BME280;4876;42.656;23.292;2023-03-20T06:42:34;94651.69;;;7.36;66.60
9676;BME280;4876;42.656;23.292;2023-03-20T06:45:03;94653.03;;;7.34;67.50
9676;BME280;4876;42.656;23.292;2023-03-20T06:47:29;94657.09;;;7.64;66.67
9676;BME280;4876;42.656;23.292;2023-03-20T06:49:56;94651.84;;;7.64;65.94
9676;BME280;4876;42.656;23.292;2023-03-20T06:52:23;94657.09;;;7.82;65.57
9676;BME280;4876;42.656;23.292;2023-03-20T06:54:50;94648.63;;;7.72;66.02
9676;BME280;4876;42.656;23.292;2023-03-20T06:57:17;94629.09;;;7.83;65.11
9676;BME280;4876;42.656;23.292;2023-03-20T06:59:44;94643.28;;;8.15;64.98
9676;BME280;4876;42.656;23.292;2023-03-20T07:02:13;94642.72;;;7.99;65.26
9676;BME280;4876;42.656;23.292;2023-03-20T07:04:40;94635.03;;;8.21;64.86
9676;BME280;4876;42.656;23.292;2023-03-20T07:07:07;94635.44;;;8.28;64.31
9676;BME280;4876;42.656;23.292;2023-03-20T07:09:34;94635.31;;;8.20;63.92
9676;BME280;4876;42.656;23.292;2023-03-20T07:12:01;94629.91;;;8.30;64.41
9676;BME280;4876;42.656;23.292;2023-03-20T07:14:29;94635.72;;;8.59;63.54
9676;BME280;4876;42.656;23.292;2023-03-20T07:16:56;94631.41;;;8.36;64.64
9676;BME280;4876;42.656;23.292;2023-03-20T07:19:24;94633.88;;;8.46;65.10
9676;BME280;4876;42.656;23.292;2023-03-20T07:21:54;94630.31;;;8.70;63.64
9676;BME280;4876;42.656;23.292;2023-03-20T07:24:23;94627.41;;;8.57;63.31
9676;BME280;4876;42.656;23.292;2023-03-20T07:26:50;94633.81;;;9.06;61.15
9676;BME280;4876;42.656;23.292;2023-03-20T07:29:17;94634.88;;;9.19;60.75
9676;BME280;4876;42.656;23.292;2023-03-20T07:31:44;94634.56;;;9.34;59.94
9676;BME280;4876;42.656;23.292;2023-03-20T07:34:11;94639.59;;;9.58;59.83
9676;BME280;4876;42.656;23.292;2023-03-20T07:36:39;94643.72;;;9.73;59.67
9676;BME280;4876;42.656;23.292;2023-03-20T07:39:06;94638.94;;;9.89;59.16
9676;BME280;4876;42.656;23.292;2023-03-20T07:41:33;94639.41;;;9.91;59.29
9676;BME280;4876;42.656;23.292;2023-03-20T07:44:00;94631.47;;;10.05;58.46
9676;BME280;4876;42.656;23.292;2023-03-20T07:46:27;94642.78;;;10.28;57.75
9676;BME280;4876;42.656;23.292;2023-03-20T07:48:54;94646.50;;;10.27;58.14
9676;BME280;4876;42.656;23.292;2023-03-20T07:51:23;94642.53;;;10.15;59.03
9676;BME280;4876;42.656;23.292;2023-03-20T07:53:51;94650.09;;;10.17;58.46
9676;BME280;4876;42.656;23.292;2023-03-20T07:56:18;94642.69;;;10.64;57.68
9676;BME280;4876;42.656;23.292;2023-03-20T07:58:45;94635.69;;;10.28;58.19
9676;BME280;4876;42.656;23.292;2023-03-20T08:01:12;94636.91;;;10.53;57.66
9676;BME280;4876;42.656;23.292;2023-03-20T08:03:39;94642.41;;;10.74;56.62
9676;BME280;4876;42.656;23.292;2023-03-20T08:06:06;94641.91;;;10.63;57.30
9676;BME280;4876;42.656;23.292;2023-03-20T08:08:34;94633.97;;;10.86;56.43
9676;BME280;4876;42.656;23.292;2023-03-20T08:11:02;94631.47;;;10.81;55.93
9676;BME280;4876;42.656;23.292;2023-03-20T08:13:29;94639.97;;;10.77;55.78
9676;BME280;4876;42.656;23.292;2023-03-20T08:15:56;94629.41;;;10.69;55.91
9676;BME280;4876;42.656;23.292;2023-03-20T08:18:22;94636.09;;;10.75;56.17
9676;BME280;4876;42.656;23.292;2023-03-20T08:20:49;94627.63;;;10.87;56.20
9676;BME280;4876;42.656;23.292;2023-03-20T08:23:16;94636.66;;;10.94;55.95
9676;BME280;4876;42.656;23.292;2023-03-20T08:25:46;94606.09;;;10.85;55.88
9676;BME280;4876;42.656;23.292;2023-03-20T08:28:14;94641.47;;;11.01;55.71
9676;BME280;4876;42.656;23.292;2023-03-20T08:30:41;94637.09;;;11.45;54.13
9676;BME280;4876;42.656;23.292;2023-03-20T08:33:08;94630.75;;;11.46;53.19
9676;BME280;4876;42.656;23.292;2023-03-20T08:35:36;94638.19;;;11.44;53.29
9676;BME280;4876;42.656;23.292;2023-03-20T08:38:02;94644.84;;;11.58;52.97
9676;BME280;4876;42.656;23.292;2023-03-20T08:40:30;94644.56;;;11.69;52.96
9676;BME280;4876;42.656;23.292;2023-03-20T08:42:57;94642.91;;;11.99;52.46
9676;BME280;4876;42.656;23.292;2023-03-20T08:45:25;94640.09;;;12.21;51.85
9676;BME280;4876;42.656;23.292;2023-03-20T08:47:52;94641.34;;;12.32;51.50
9676;BME280;4876;42.656;23.292;2023-03-20T08:50:19;94633.09;;;12.34;52.44
9676;BME280;4876;42.656;23.292;2023-03-20T08:52:46;94625.22;;;12.17;52.75
9676;BME280;4876;42.656;23.292;2023-03-20T08:55:14;94636.84;;;12.16;53.30
9676;BME280;4876;42.656;23.292;2023-03-20T08:57:41;94631.09;;;12.22;52.73
9676;BME280;4876;42.656;23.292;2023-03-20T09:00:09;94632.00;;;12.35;52.99
9676;BME280;4876;42.656;23.292;2023-03-20T09:02:39;94612.63;;;12.39;51.76
9676;BME280;4876;42.656;23.292;2023-03-20T09:05:07;94631.38;;;12.47;51.99
9676;BME280;4876;42.656;23.292;2023-03-20T09:07:34;94626.38;;;12.54;51.68
9676;BME280;4876;42.656;23.292;2023-03-20T09:10:01;94620.38;;;12.91;50.35
9676;BME280;4876;42.656;23.292;2023-03-20T09:12:28;94622.13;;;12.87;51.28
9676;BME280;4876;42.656;23.292;2023-03-20T09:14:57;94615.84;;;13.01;51.16
9676;BME280;4876;42.656;23.292;2023-03-20T09:17:59;94617.78;;;13.21;50.63
9676;BME280;4876;42.656;23.292;2023-03-20T09:20:26;94617.59;;;13.26;50.54
9676;BME280;4876;42.656;23.292;2023-03-20T09:22:53;94616.94;;;13.38;49.78
9676;BME280;4876;42.656;23.292;2023-03-20T09:25:21;94618.34;;;13.35;50.21
9676;BME280;4876;42.656;23.292;2023-03-20T09:27:50;94608.53;;;12.98;50.86
9676;BME280;4876;42.656;23.292;2023-03-20T09:30:20;94608.38;;;13.03;50.00
9676;BME280;4876;42.656;23.292;2023-03-20T09:32:47;94609.31;;;13.36;49.78
9676;BME280;4876;42.656;23.292;2023-03-20T09:35:16;94599.13;;;13.47;49.74
9676;BME280;4876;42.656;23.292;2023-03-20T09:37:43;94595.81;;;13.59;49.20
9676;BME280;4876;42.656;23.292;2023-03-20T09:40:20;94599.81;;;13.65;49.88
9676;BME280;4876;42.656;23.292;2023-03-20T09:42:52;94589.63;;;13.55;49.60
9676;BME280;4876;42.656;23.292;2023-03-20T09:45:42;94581.50;;;13.81;49.16
9676;BME280;4876;42.656;23.292;2023-03-20T09:48:16;94587.22;;;13.83;49.47
9676;BME280;4876;42.656;23.292;2023-03-20T09:50:50;94569.88;;;13.94;48.95
9676;BME280;4876;42.656;23.292;2023-03-20T09:53:25;94571.66;;;14.02;48.35
9676;BME280;4876;42.656;23.292;2023-03-20T09:55:56;94554.16;;;13.97;48.51
9676;BME280;4876;42.656;23.292;2023-03-20T09:58:24;94555.09;;;14.26;48.32
9676;BME280;4876;42.656;23.292;2023-03-20T10:00:55;94473.25;;;13.96;47.91
9676;BME280;4876;42.656;23.292;2023-03-20T10:03:26;94541.53;;;14.48;47.85
9676;BME280;4876;42.656;23.292;2023-03-20T10:05:58;94539.34;;;14.63;47.21
9676;BME280;4876;42.656;23.292;2023-03-20T10:08:28;94523.44;;;14.63;46.24
9676;BME280;4876;42.656;23.292;2023-03-20T10:11:04;94523.13;;;14.76;46.42
9676;BME280;4876;42.656;23.292;2023-03-20T10:13:40;94528.97;;;14.82;45.98
9676;BME280;4876;42.656;23.292;2023-03-20T10:16:18;94523.31;;;14.96;45.53
9676;BME280;4876;42.656;23.292;2023-03-20T10:18:55;94521.69;;;15.03;45.98
9676;BME280;4876;42.656;23.292;2023-03-20T10:21:33;94524.31;;;15.16;45.64
9676;BME280;4876;42.656;23.292;2023-03-20T10:24:04;94518.22;;;15.15;45.23
9676;BME280;4876;42.656;23.292;2023-03-20T10:26:34;94524.19;;;15.24;45.30
9676;BME280;4876;42.656;23.292;2023-03-20T10:29:04;94516.41;;;15.44;45.40
9676;BME280;4876;42.656;23.292;2023-03-20T10:31:40;94517.16;;;15.56;45.00
9676;BME280;4876;42.656;23.292;2023-03-20T10:34:34;94509.25;;;15.44;45.22
9676;BME280;4876;42.656;23.292;2023-03-20T10:37:24;94513.56;;;15.77;44.83
9676;BME280;4876;42.656;23.292;2023-03-20T10:40:02;94508.31;;;15.93;44.71
9676;BME280;4876;42.656;23.292;2023-03-20T10:42:37;94496.59;;;15.94;44.49
9676;BME280;4876;42.656;23.292;2023-03-20T10:45:17;94504.16;;;16.07;44.36
9676;BME280;4876;42.656;23.292;2023-03-20T10:47:49;94469.84;;;16.14;43.62
9676;BME280;4876;42.656;23.292;2023-03-20T10:50:20;94492.19;;;16.45;43.13
9676;BME280;4876;42.656;23.292;2023-03-20T10:52:51;94478.34;;;16.36;43.33
9676;BME280;4876;42.656;23.292;2023-03-20T10:55:21;94483.06;;;16.58;42.92
9676;BME280;4876;42.656;23.292;2023-03-20T10:57:53;94486.91;;;16.61;43.02
9676;BME280;4876;42.656;23.292;2023-03-20T11:00:25;94480.88;;;16.64;42.69
9676;BME280;4876;42.656;23.292;2023-03-20T11:02:52;94483.72;;;16.87;42.18
9676;BME280;4876;42.656;23.292;2023-03-20T11:05:22;94485.72;;;16.58;42.59
9676;BME280;4876;42.656;23.292;2023-03-20T11:08:00;94470.19;;;16.60;42.83
9676;BME280;4876;42.656;23.292;2023-03-20T11:10:30;94469.41;;;16.91;41.77
9676;BME280;4876;42.656;23.292;2023-03-20T11:12:57;94458.03;;;16.91;41.41
9676;BME280;4876;42.656;23.292;2023-03-20T11:15:31;94455.28;;;17.22;40.69
9676;BME280;4876;42.656;23.292;2023-03-20T11:18:00;94450.50;;;17.32;40.30
9676;BME280;4876;42.656;23.292;2023-03-20T11:20:33;94461.84;;;17.29;39.95
9676;BME280;4876;42.656;23.292;2023-03-20T11:23:02;94453.63;;;17.53;39.72
9676;BME280;4876;42.656;23.292;2023-03-20T11:25:33;94452.41;;;17.70;39.24
9676;BME280;4876;42.656;23.292;2023-03-20T11:28:20;94447.59;;;17.37;39.15
9676;BME280;4876;42.656;23.292;2023-03-20T11:30:56;94437.38;;;17.58;38.73
9676;BME280;4876;42.656;23.292;2023-03-20T11:33:25;94429.53;;;17.85;38.27
9676;BME280;4876;42.656;23.292;2023-03-20T11:35:54;94430.91;;;17.98;38.97
9676;BME280;4876;42.656;23.292;2023-03-20T11:38:23;94429.38;;;18.20;38.03
9676;BME280;4876;42.656;23.292;2023-03-20T11:40:50;94420.38;;;18.05;37.73
9676;BME280;4876;42.656;23.292;2023-03-20T11:43:19;94419.78;;;18.15;37.42
9676;BME280;4876;42.656;23.292;2023-03-20T11:45:48;94414.94;;;18.21;37.74
9676;BME280;4876;42.656;23.292;2023-03-20T11:48:18;94402.16;;;18.30;38.38
9676;BME280;4876;42.656;23.292;2023-03-20T11:50:48;94400.97;;;18.27;36.98
9676;BME280;4876;42.656;23.292;2023-03-20T11:53:25;94395.34;;;18.33;36.51
9676;BME280;4876;42.656;23.292;2023-03-20T11:56:12;94389.47;;;18.20;36.98
9676;BME280;4876;42.656;23.292;2023-03-20T11:58:49;94385.69;;;18.47;36.28
9676;BME280;4876;42.656;23.292;2023-03-20T12:01:20;94385.84;;;18.58;35.76
9676;BME280;4876;42.656;23.292;2023-03-20T12:03:50;94374.97;;;18.44;36.07
9676;BME280;4876;42.656;23.292;2023-03-20T12:06:22;94379.63;;;18.50;36.04
9676;BME280;4876;42.656;23.292;2023-03-20T12:08:55;94370.56;;;18.55;36.69
9676;BME280;4876;42.656;23.292;2023-03-20T12:11:37;94371.50;;;18.66;36.12
9676;BME280;4876;42.656;23.292;2023-03-20T12:14:14;94374.47;;;18.61;35.87
9676;BME280;4876;42.656;23.292;2023-03-20T12:16:42;94367.59;;;18.60;35.43
9676;BME280;4876;42.656;23.292;2023-03-20T12:19:12;94367.34;;;18.69;35.30
9676;BME280;4876;42.656;23.292;2023-03-20T12:21:45;94352.97;;;18.73;35.40
9676;BME280;4876;42.656;23.292;2023-03-20T12:24:20;94349.34;;;18.62;35.08
9676;BME280;4876;42.656;23.292;2023-03-20T12:26:55;94357.75;;;18.91;34.31
9676;BME280;4876;42.656;23.292;2023-03-20T12:29:30;94363.13;;;18.94;34.75
9676;BME280;4876;42.656;23.292;2023-03-20T12:32:00;94358.91;;;18.90;34.23
9676;BME280;4876;42.656;23.292;2023-03-20T12:34:32;94350.69;;;18.75;34.27
9676;BME280;4876;42.656;23.292;2023-03-20T12:37:00;94353.81;;;19.11;34.00
9676;BME280;4876;42.656;23.292;2023-03-20T12:39:32;94347.47;;;19.23;33.65
9676;BME280;4876;42.656;23.292;2023-03-20T12:42:10;94345.72;;;19.37;33.46
9676;BME280;4876;42.656;23.292;2023-03-20T12:44:43;94346.59;;;19.45;34.07
9676;BME280;4876;42.656;23.292;2023-03-20T12:47:34;94334.41;;;19.48;33.56
9676;BME280;4876;42.656;23.292;2023-03-20T12:50:09;94337.06;;;19.48;32.87
9676;BME280;4876;42.656;23.292;2023-03-20T12:52:47;94322.25;;;19.50;33.53
9676;BME280;4876;42.656;23.292;2023-03-20T12:55:25;94325.19;;;19.42;32.89
9676;BME280;4876;42.656;23.292;2023-03-20T12:58:03;94323.91;;;19.62;32.26
9676;BME280;4876;42.656;23.292;2023-03-20T13:00:37;94311.81;;;19.72;32.23
9676;BME280;4876;42.656;23.292;2023-03-20T13:03:18;94314.50;;;19.75;32.06
9676;BME280;4876;42.656;23.292;2023-03-20T13:05:57;94313.13;;;19.55;32.29
9676;BME280;4876;42.656;23.292;2023-03-20T13:11:35;94305.88;;;19.52;31.78
9676;BME280;4876;42.656;23.292;2023-03-20T13:14:12;94304.56;;;19.72;31.89
9676;BME280;4876;42.656;23.292;2023-03-20T13:16:48;94296.78;;;20.01;31.29
9676;BME280;4876;42.656;23.292;2023-03-20T13:19:24;94291.78;;;19.96;31.52
9676;BME280;4876;42.656;23.292;2023-03-20T13:21:57;94289.91;;;20.00;31.50
9676;BME280;4876;42.656;23.292;2023-03-20T13:24:38;94287.66;;;20.02;31.48
9676;BME280;4876;42.656;23.292;2023-03-20T13:27:23;94281.88;;;19.96;30.92
9676;BME280;4876;42.656;23.292;2023-03-20T13:29:58;94284.13;;;19.90;30.79
9676;BME280;4876;42.656;23.292;2023-03-20T13:32:35;94285.22;;;19.82;31.39
9676;BME280;4876;42.656;23.292;2023-03-20T13:35:19;94276.41;;;19.78;30.90
9676;BME280;4876;42.656;23.292;2023-03-20T13:37:51;94276.13;;;19.90;30.64
9676;BME280;4876;42.656;23.292;2023-03-20T13:40:22;94276.25;;;20.08;29.96
9676;BME280;4876;42.656;23.292;2023-03-20T13:42:54;94271.63;;;20.05;30.02